createdAt,value
2023-03-12T00:01:07.877Z,19.72
2023-03-12T00:05:08.020Z,19.71
2023-03-12T00:09:08.206Z,19.71
2023-03-12T00:13:08.366Z,19.70
2023-03-12T00:17:08.655Z,19.68
2023-03-12T00:21:08.630Z,19.66
2023-03-12T00:25:08.750Z,19.66
2023-03-12T00:29:08.793Z,19.66
2023-03-12T00:33:08.932Z,19.66
2023-03-12T00:37:09.034Z,19.66
2023-03-12T00:41:09.113Z,19.65
2023-03-12T00:45:09.457Z,19.65
2023-03-12T00:49:09.441Z,19.64
2023-03-12T00:53:09.606Z,19.64
2023-03-12T00:57:09.762Z,19.64
2023-03-12T01:01:09.838Z,19.63
2023-03-12T01:05:09.815Z,19.60
2023-03-12T01:09:09.889Z,19.58
2023-03-12T01:13:09.942Z,19.58
2023-03-12T01:17:09.937Z,19.56
2023-03-12T01:21:09.955Z,19.56
2023-03-12T01:25:09.999Z,19.55
2023-03-12T01:29:10.080Z,19.55
2023-03-12T01:33:10.102Z,19.53
2023-03-12T01:37:10.053Z,19.53
2023-03-12T01:41:10.079Z,19.51
2023-03-12T01:45:10.135Z,19.52
2023-03-12T01:49:10.178Z,19.50
2023-03-12T01:53:10.170Z,19.50
2023-03-12T01:57:10.145Z,19.49
2023-03-12T02:01:10.351Z,19.48
2023-03-12T02:05:10.214Z,19.46
2023-03-12T02:09:10.322Z,19.46
2023-03-12T02:13:10.342Z,19.44
2023-03-12T02:17:10.380Z,19.43
2023-03-12T02:21:10.422Z,19.43
2023-03-12T02:25:10.485Z,19.42
2023-03-12T02:29:10.576Z,19.40
2023-03-12T02:33:10.685Z,19.40
2023-03-12T02:37:10.734Z,19.40
2023-03-12T02:41:10.804Z,19.41
2023-03-12T02:45:10.928Z,19.39
2023-03-12T02:49:10.976Z,19.39
2023-03-12T02:53:11.092Z,19.38
2023-03-12T02:57:11.101Z,19.37
2023-03-12T03:01:11.225Z,19.36
2023-03-12T03:05:11.388Z,19.36
2023-03-12T03:09:11.489Z,19.35
2023-03-12T03:13:11.449Z,19.35
2023-03-12T03:17:11.614Z,19.35
2023-03-12T03:21:11.684Z,19.35
2023-03-12T03:25:11.745Z,19.34
2023-03-12T03:29:11.886Z,19.33
2023-03-12T03:33:12.012Z,19.32
2023-03-12T03:37:12.038Z,19.33
2023-03-12T03:41:12.141Z,19.33
2023-03-12T03:45:12.257Z,19.32
2023-03-12T03:49:12.303Z,19.31
2023-03-12T03:53:12.435Z,19.29
2023-03-12T03:57:12.554Z,19.27
2023-03-12T04:01:12.611Z,19.27
2023-03-12T04:05:12.787Z,19.27
2023-03-12T04:09:12.799Z,19.26
2023-03-12T04:13:12.964Z,19.26
2023-03-12T04:17:13.123Z,19.24
2023-03-12T04:21:13.211Z,19.24
2023-03-12T04:25:13.353Z,19.23
2023-03-12T04:29:13.447Z,19.22
2023-03-12T04:33:13.625Z,19.21
2023-03-12T04:37:13.685Z,19.21
2023-03-12T04:41:13.862Z,19.19
2023-03-12T04:45:14.031Z,19.18
2023-03-12T04:49:14.145Z,19.17
2023-03-12T04:53:14.340Z,19.16
2023-03-12T04:57:14.426Z,19.15
2023-03-12T05:01:14.733Z,19.14
2023-03-12T05:05:14.720Z,19.12
2023-03-12T05:09:14.895Z,19.11
2023-03-12T05:13:15.062Z,19.11
2023-03-12T05:17:15.275Z,19.09
2023-03-12T05:21:15.465Z,19.09
2023-03-12T05:25:15.653Z,19.08
2023-03-12T05:29:15.896Z,19.07
2023-03-12T05:33:16.118Z,19.07
2023-03-12T05:37:16.254Z,19.06
2023-03-12T05:41:16.522Z,19.06
2023-03-12T05:45:16.657Z,19.04
2023-03-12T05:49:16.905Z,19.02
2023-03-12T05:53:17.372Z,19.02
2023-03-12T05:57:17.093Z,19.02
2023-03-12T06:01:17.012Z,19.01
2023-03-12T06:05:16.949Z,19.01
2023-03-12T06:09:16.947Z,19.00
2023-03-12T06:13:16.935Z,19.00
2023-03-12T06:17:16.886Z,18.99
2023-03-12T06:21:16.837Z,18.99
2023-03-12T06:25:16.812Z,18.98
2023-03-12T06:29:16.710Z,18.97
2023-03-12T06:33:16.713Z,18.99
2023-03-12T06:37:16.860Z,18.99
2023-03-12T06:41:16.822Z,18.99
2023-03-12T06:45:16.839Z,18.98
2023-03-12T06:49:16.709Z,18.99
2023-03-12T06:53:16.712Z,18.98
2023-03-12T06:57:16.703Z,19.00
2023-03-12T07:01:16.633Z,19.01
2023-03-12T07:05:16.671Z,19.01
2023-03-12T07:09:16.574Z,19.01
2023-03-12T07:13:16.543Z,19.02
2023-03-12T07:17:16.500Z,19.02
2023-03-12T07:21:16.682Z,19.03
2023-03-12T07:25:18.934Z,19.03
2023-03-12T07:29:17.074Z,19.03
2023-03-12T07:33:17.319Z,19.00
2023-03-12T07:37:17.461Z,19.00
2023-03-12T07:41:17.478Z,19.01
2023-03-12T07:45:17.469Z,19.03
2023-03-12T07:49:17.326Z,19.05
2023-03-12T07:53:17.308Z,19.08
2023-03-12T07:57:17.363Z,19.08
2023-03-12T08:01:17.289Z,19.07
2023-03-12T08:05:17.258Z,19.05
2023-03-12T08:09:17.158Z,19.06
2023-03-12T08:13:17.164Z,19.06
2023-03-12T08:17:17.148Z,19.06
2023-03-12T08:21:17.205Z,19.09
2023-03-12T08:25:17.195Z,19.07
2023-03-12T08:29:17.136Z,19.05
2023-03-12T08:33:17.069Z,19.05
2023-03-12T08:37:17.056Z,19.07
2023-03-12T08:41:17.058Z,19.02
2023-03-12T08:45:16.949Z,19.03
2023-03-12T08:49:16.963Z,19.07
2023-03-12T08:53:16.906Z,19.10
2023-03-12T08:57:16.873Z,19.12
2023-03-12T09:01:16.815Z,19.13
2023-03-12T09:05:16.926Z,19.10
2023-03-12T09:09:17.107Z,19.09
2023-03-12T09:13:17.320Z,19.05
2023-03-12T09:17:17.574Z,19.04
2023-03-12T09:21:17.488Z,19.06
2023-03-12T09:25:17.416Z,19.08
2023-03-12T09:29:17.430Z,19.07
2023-03-12T09:33:17.355Z,19.09
2023-03-12T09:37:17.432Z,19.09
2023-03-12T09:41:17.261Z,19.10
2023-03-12T09:45:17.254Z,19.11
2023-03-12T09:49:17.189Z,19.10
2023-03-12T09:53:17.128Z,19.09
2023-03-12T09:57:17.153Z,19.01
2023-03-12T10:01:17.137Z,18.99
2023-03-12T10:05:17.330Z,18.92
2023-03-12T10:09:17.361Z,18.92
2023-03-12T10:13:17.426Z,18.92
2023-03-12T10:17:17.574Z,18.90
2023-03-12T10:21:17.678Z,18.84
2023-03-12T10:25:17.692Z,18.84
2023-03-12T10:29:17.756Z,18.88
2023-03-12T10:33:17.776Z,18.91
2023-03-12T10:37:17.823Z,18.83
2023-03-12T10:41:17.871Z,18.69
2023-03-12T10:45:17.898Z,18.70
2023-03-12T10:49:17.957Z,18.75
2023-03-12T10:53:17.963Z,18.76
2023-03-12T10:57:17.984Z,18.78
2023-03-12T11:01:18.148Z,18.77
2023-03-12T11:05:18.138Z,18.74
2023-03-12T11:09:18.068Z,18.71
2023-03-12T11:13:18.147Z,18.75
2023-03-12T11:17:18.190Z,18.77
2023-03-12T11:21:18.151Z,18.81
2023-03-12T11:25:18.320Z,18.87
2023-03-12T11:29:18.539Z,18.94
2023-03-12T11:33:18.658Z,19.00
2023-03-12T11:37:18.679Z,19.00
2023-03-12T11:41:18.610Z,18.99
2023-03-12T11:45:18.585Z,19.00
2023-03-12T11:49:18.572Z,19.01
2023-03-12T11:53:18.498Z,19.05
2023-03-12T11:57:18.502Z,19.04
2023-03-12T12:01:18.457Z,19.07
2023-03-12T12:05:18.398Z,19.10
2023-03-12T12:09:18.362Z,19.13
2023-03-12T12:13:18.292Z,19.12
2023-03-12T12:17:18.310Z,19.15
2023-03-12T12:21:18.480Z,19.19
2023-03-12T12:25:18.565Z,19.22
2023-03-12T12:29:18.748Z,19.24
2023-03-12T12:33:18.857Z,19.25
2023-03-12T12:37:18.906Z,19.31
2023-03-12T12:41:18.986Z,19.36
2023-03-12T12:45:19.078Z,19.40
2023-03-12T12:49:19.108Z,19.42
2023-03-12T12:53:19.194Z,19.45
2023-03-12T12:57:19.159Z,19.51
2023-03-12T13:01:19.370Z,19.53
2023-03-12T13:05:19.323Z,19.53
2023-03-12T13:09:19.309Z,19.54
2023-03-12T13:13:19.385Z,19.57
2023-03-12T13:17:19.467Z,19.65
2023-03-12T13:21:19.530Z,19.67
2023-03-12T13:25:19.749Z,19.65
2023-03-12T13:29:19.850Z,19.66
2023-03-12T13:33:19.853Z,19.64
2023-03-12T13:37:19.980Z,19.60
2023-03-12T13:41:19.994Z,19.61
2023-03-12T13:45:20.047Z,19.65
2023-03-12T13:49:20.267Z,19.66
2023-03-12T13:53:20.420Z,19.67
2023-03-12T13:57:20.593Z,19.67
2023-03-12T14:01:20.867Z,19.65
2023-03-12T14:05:20.928Z,19.64
2023-03-12T14:09:21.014Z,19.66
2023-03-12T14:13:21.215Z,19.69
2023-03-12T14:17:21.333Z,19.73
2023-03-12T14:21:21.608Z,19.81
2023-03-12T14:25:21.786Z,19.93
2023-03-12T14:29:21.968Z,19.98
2023-03-12T14:33:22.170Z,20.07
2023-03-12T14:37:22.228Z,20.28
2023-03-12T14:41:22.332Z,20.29
2023-03-12T14:45:22.418Z,20.29
2023-03-12T14:49:22.479Z,20.29
2023-03-12T14:53:22.602Z,20.32
2023-03-12T14:57:22.816Z,20.32
2023-03-12T15:01:22.748Z,20.43
2023-03-12T15:05:22.759Z,20.41
2023-03-12T15:09:22.713Z,20.52
2023-03-12T15:13:22.791Z,20.71
2023-03-12T15:17:22.909Z,20.96
2023-03-12T15:21:23.146Z,21.03
2023-03-12T15:25:23.402Z,21.21
2023-03-12T15:29:23.457Z,21.34
2023-03-12T15:33:23.601Z,21.45
2023-03-12T15:37:23.715Z,21.68
2023-03-12T15:41:23.719Z,28.04
2023-03-12T15:45:23.908Z,32.29
2023-03-12T15:49:23.980Z,28.26
2023-03-12T15:53:24.088Z,26.38
2023-03-12T15:57:24.213Z,23.94
2023-03-12T16:01:24.371Z,22.69
2023-03-12T16:05:24.374Z,22.20
2023-03-12T16:09:25.064Z,25.61
2023-03-12T16:13:24.713Z,25.46
2023-03-12T16:17:24.748Z,23.93
2023-03-12T16:21:24.870Z,23.05
2023-03-12T16:25:24.905Z,21.89
2023-03-12T16:29:25.020Z,21.47
2023-03-12T16:33:25.122Z,21.20
2023-03-12T16:37:25.259Z,21.02
2023-03-12T16:41:25.587Z,20.83
2023-03-12T16:45:25.589Z,20.67
2023-03-12T16:49:25.652Z,20.56
2023-03-12T16:53:25.653Z,20.48
2023-03-12T16:57:25.705Z,20.40
2023-03-12T17:01:25.813Z,20.31
2023-03-12T17:05:25.822Z,20.24
2023-03-12T17:09:25.926Z,20.17
2023-03-12T17:13:26.070Z,20.10
2023-03-12T17:17:26.167Z,20.03
2023-03-12T17:21:26.293Z,19.98
2023-03-12T17:25:26.479Z,19.98
2023-03-12T17:29:26.573Z,19.95
2023-03-12T17:33:26.768Z,19.92
2023-03-12T17:37:26.939Z,19.85
2023-03-12T17:41:27.563Z,19.83
2023-03-12T17:45:26.812Z,19.83
2023-03-12T17:49:26.784Z,19.83
2023-03-12T17:53:26.772Z,19.83
2023-03-12T17:57:26.709Z,19.83
2023-03-12T18:01:26.764Z,19.83
2023-03-12T18:05:26.705Z,19.82
2023-03-12T18:09:26.639Z,19.80
2023-03-12T18:13:26.793Z,19.80
2023-03-12T18:17:26.950Z,19.82
2023-03-12T18:21:27.165Z,19.83
2023-03-12T18:25:27.364Z,19.82
2023-03-12T18:29:27.533Z,19.81
2023-03-12T18:33:27.733Z,19.80
2023-03-12T18:37:27.975Z,19.79
2023-03-12T18:41:27.940Z,19.77
2023-03-12T18:45:27.885Z,19.75
2023-03-12T18:49:27.860Z,19.74
2023-03-12T18:53:27.811Z,19.72
2023-03-12T18:57:27.788Z,19.70
2023-03-12T19:01:27.829Z,19.69
2023-03-12T19:05:27.719Z,19.68
2023-03-12T19:09:27.673Z,19.66
2023-03-12T19:13:27.614Z,19.65
2023-03-12T19:17:27.612Z,19.62
2023-03-12T19:21:27.590Z,19.57
2023-03-12T19:25:27.553Z,19.53
2023-03-12T19:29:27.500Z,19.51
2023-03-12T19:33:27.410Z,19.53
2023-03-12T19:37:27.381Z,19.52
2023-03-12T19:41:27.351Z,19.52
2023-03-12T19:45:27.367Z,19.46
2023-03-12T19:49:27.248Z,19.41
2023-03-12T19:53:27.230Z,19.38
2023-03-12T19:57:27.345Z,19.36
2023-03-12T20:01:27.432Z,19.35
2023-03-12T20:05:27.536Z,19.32
2023-03-12T20:09:27.637Z,19.27
2023-03-12T20:13:27.757Z,19.23
2023-03-12T20:17:27.943Z,19.15
2023-03-12T20:21:29.593Z,19.14
2023-03-12T20:25:28.085Z,19.11
2023-03-12T20:29:27.982Z,19.11
2023-03-12T20:33:28.017Z,19.08
2023-03-12T20:37:28.023Z,19.06
2023-03-12T20:41:27.895Z,19.03
2023-03-12T20:45:27.821Z,18.95
2023-03-12T20:49:27.828Z,18.89
2023-03-12T20:53:27.786Z,18.90
2023-03-12T20:57:28.213Z,18.83
2023-03-12T21:01:27.825Z,18.85
2023-03-12T21:05:27.706Z,18.91
2023-03-12T21:09:27.696Z,18.94
2023-03-12T21:13:27.680Z,18.94
2023-03-12T21:17:27.663Z,18.93
2023-03-12T21:21:27.643Z,18.92
2023-03-12T21:25:27.686Z,18.88
2023-03-12T21:29:27.585Z,18.86
2023-03-12T21:33:27.562Z,18.85
2023-03-12T21:37:27.513Z,18.86
2023-03-12T21:41:27.456Z,18.87
2023-03-12T21:45:27.409Z,18.91
2023-03-12T21:49:27.482Z,18.93
2023-03-12T21:53:27.384Z,18.93
2023-03-12T21:57:27.292Z,18.90
2023-03-12T22:01:27.343Z,18.88
2023-03-12T22:05:27.367Z,18.89
2023-03-12T22:09:27.668Z,18.90
2023-03-12T22:13:27.792Z,18.90
2023-03-12T22:17:27.942Z,18.91
2023-03-12T22:21:28.149Z,18.91
2023-03-12T22:25:28.060Z,18.91
2023-03-12T22:29:28.090Z,18.91
2023-03-12T22:33:28.025Z,18.90
2023-03-12T22:37:28.018Z,18.89
2023-03-12T22:41:27.953Z,18.90
2023-03-12T22:45:27.922Z,18.89
2023-03-12T22:49:27.904Z,18.89
2023-03-12T22:53:28.259Z,18.90
2023-03-12T22:57:28.262Z,18.89
2023-03-12T23:01:27.865Z,18.89
2023-03-12T23:05:27.717Z,18.89
2023-03-12T23:09:27.683Z,18.89
2023-03-12T23:13:27.685Z,18.88
2023-03-12T23:17:27.830Z,18.88
2023-03-12T23:21:28.005Z,18.89
2023-03-12T23:25:28.099Z,18.89
2023-03-12T23:29:28.318Z,18.88
2023-03-12T23:33:28.427Z,18.88
2023-03-12T23:37:28.562Z,18.89
2023-03-12T23:41:28.750Z,18.88
2023-03-12T23:45:28.914Z,18.88
2023-03-12T23:49:28.973Z,18.87
2023-03-12T23:53:29.044Z,18.88
2023-03-12T23:57:29.175Z,18.87
